Time;durP1;ratioP1;P1;durP2;ratioP2;P2;SDS_P1;SDS_P2;PMS_P1;PMS_P2;Temp;Humidity;BMP_temperature;BMP_pressure;BME280_temperature;BME280_humidity;BME280_pressure;Samples;Min_cycle;Max_cycle;Signal;HPM_P1;HPM_P2
2022/10/18 00:00:39;;;;;;;11.57;9.55;;;;;;;8.88;55.08;96452.56;5082408;28;20208;-63
2022/10/18 00:03:05;;;;;;;11.73;8.70;;;;;;;8.74;55.56;96446.47;5083233;28;20403;-64
2022/10/18 00:05:30;;;;;;;11.57;9.60;;;;;;;8.77;55.25;96448.91;5080041;28;20189;-65
2022/10/18 00:08:21;;;;;;;10.85;9.80;;;;;;;8.74;55.62;96443.00;5084920;28;20211;-65
2022/10/18 00:10:47;;;;;;;12.13;10.40;;;;;;;8.74;55.73;96441.25;5085653;28;20224;-65
2022/10/18 00:13:13;;;;;;;9.93;8.75;;;;;;;8.74;55.96;96436.00;5084616;28;20187;-65
2022/10/18 00:15:38;;;;;;;11.23;10.07;;;;;;;8.54;55.79;96436.50;5079130;28;20184;-64
2022/10/18 00:18:04;;;;;;;13.13;9.77;;;;;;;8.56;56.45;96438.09;5077740;28;20181;-65
2022/10/18 00:20:29;;;;;;;11.63;9.20;;;;;;;8.50;56.66;96435.03;5096090;28;20241;-65
2022/10/18 00:22:55;;;;;;;11.00;9.65;;;;;;;8.49;56.21;96425.50;5082119;28;20520;-63
2022/10/18 00:25:21;;;;;;;11.68;9.43;;;;;;;8.32;56.94;96426.63;5085208;28;20196;-64
2022/10/18 00:27:46;;;;;;;13.90;10.40;;;;;;;8.19;57.40;96416.09;5079561;28;20222;-64
2022/10/18 00:30:11;;;;;;;10.27;9.23;;;;;;;8.12;57.25;96407.81;5086502;28;20188;-64
2022/10/18 00:32:38;;;;;;;12.07;9.82;;;;;;;8.25;56.94;96407.00;5081295;28;20185;-64
2022/10/18 00:35:05;;;;;;;12.38;9.07;;;;;;;8.33;56.88;96415.19;5088434;28;20192;-64
2022/10/18 00:37:31;;;;;;;14.43;9.75;;;;;;;8.20;56.96;96409.09;5082301;28;20276;-64
2022/10/18 00:39:57;;;;;;;11.63;9.85;;;;;;;8.22;56.84;96405.41;5085322;28;20234;-64
2022/10/18 00:42:26;;;;;;;11.27;9.77;;;;;;;8.20;57.04;96409.91;5080929;28;20208;-64
2022/10/18 00:45:19;;;;;;;11.38;9.75;;;;;;;8.22;57.25;96402.81;5085815;28;20195;-64
2022/10/18 00:47:52;;;;;;;10.30;9.25;;;;;;;8.16;57.33;96390.13;5079690;28;20220;-64
2022/10/18 00:50:20;;;;;;;11.20;9.52;;;;;;;8.02;57.59;96405.91;5087199;28;20192;-63
2022/10/18 00:52:51;;;;;;;12.02;10.10;;;;;;;8.12;57.79;96412.22;5083919;28;20195;-64
2022/10/18 00:55:17;;;;;;;12.13;10.07;;;;;;;8.02;57.33;96396.28;5084384;28;20231;-64
2022/10/18 00:57:44;;;;;;;11.97;9.83;;;;;;;8.00;57.65;96397.31;5081813;28;20208;-64
2022/10/18 01:00:10;;;;;;;13.93;10.40;;;;;;;8.00;57.64;96386.84;5068013;28;20219;-65
2022/10/18 01:02:39;;;;;;;13.38;11.05;;;;;;;8.06;57.22;96392.50;5082542;28;20675;-65
2022/10/18 01:05:05;;;;;;;13.68;11.18;;;;;;;7.88;57.55;96391.94;5087630;28;20192;-65
2022/10/18 01:07:58;;;;;;;13.05;10.40;;;;;;;8.08;57.23;96400.28;5079276;28;20200;-64
2022/10/18 01:10:33;;;;;;;14.85;10.80;;;;;;;7.93;57.71;96395.09;5084197;28;20237;-65
2022/10/18 01:13:26;;;;;;;12.93;9.30;;;;;;;7.84;58.19;96392.25;5095436;28;20227;-65
2022/10/18 01:15:55;;;;;;;11.33;9.93;;;;;;;7.88;58.02;96389.31;5082478;28;20201;-65
2022/10/18 01:18:42;;;;;;;11.02;9.80;;;;;;;7.83;58.06;96386.19;5081235;28;20192;-65
2022/10/18 01:21:12;;;;;;;13.65;11.48;;;;;;;7.77;57.79;96391.81;5081950;28;20189;-65
2022/10/18 01:23:52;;;;;;;13.67;12.27;;;;;;;7.61;57.94;96388.53;5085268;28;20192;-65
2022/10/18 01:26:51;;;;;;;15.55;12.13;;;;;;;7.68;58.22;96381.97;5096635;28;20261;-65
2022/10/18 01:29:20;;;;;;;14.77;11.40;;;;;;;7.58;59.16;96381.72;5098796;28;20309;-65
2022/10/18 01:31:50;;;;;;;12.33;10.50;;;;;;;7.61;58.67;96384.13;5085215;28;20245;-65
2022/10/18 01:34:18;;;;;;;13.90;12.48;;;;;;;7.69;58.42;96384.47;5085341;28;20208;-65
2022/10/18 01:36:51;;;;;;;13.57;11.03;;;;;;;7.54;58.60;96379.38;5081405;28;20215;-65
2022/10/18 01:39:25;;;;;;;12.63;10.47;;;;;;;7.43;59.30;96378.31;5083733;28;20185;-65
2022/10/18 01:41:53;;;;;;;12.20;10.32;;;;;;;7.42;59.46;96375.78;5075482;28;20283;-65
2022/10/18 01:44:22;;;;;;;13.50;10.87;;;;;;;7.43;59.16;96378.31;5084407;28;20191;-65
2022/10/18 01:46:49;;;;;;;12.77;10.77;;;;;;;7.56;59.27;96373.09;5081827;28;20221;-65
2022/10/18 01:49:15;;;;;;;12.82;11.15;;;;;;;7.36;59.36;96360.50;5081203;28;20300;-65
2022/10/18 01:51:41;;;;;;;13.60;10.57;;;;;;;7.51;59.00;96362.09;5083009;28;20255;-65
2022/10/18 01:54:06;;;;;;;14.30;11.27;;;;;;;7.54;59.07;96368.91;5080005;28;20188;-65
2022/10/18 01:56:53;;;;;;;11.20;10.07;;;;;;;7.55;58.69;96368.81;5083280;28;20255;-65
2022/10/18 01:59:21;;;;;;;13.15;10.60;;;;;;;7.50;58.63;96358.66;5077223;28;20275;-65
2022/10/18 02:02:16;;;;;;;13.80;10.73;;;;;;;7.43;58.90;96367.84;5087576;28;20283;-65
2022/10/18 02:04:58;;;;;;;16.00;11.45;;;;;;;7.14;59.71;96358.44;5100786;28;20184;-65
2022/10/18 02:07:40;;;;;;;14.93;11.85;;;;;;;7.13;59.75;96351.50;5084287;28;20268;-65
2022/10/18 02:10:19;;;;;;;16.80;11.23;;;;;;;7.20;59.42;96347.56;5094560;28;20185;-65
2022/10/18 02:12:46;;;;;;;12.65;11.35;;;;;;;7.14;59.41;96356.66;5036525;28;20289;-65
2022/10/18 02:15:16;;;;;;;13.85;11.40;;;;;;;7.06;59.79;96348.44;5048049;28;20186;-65
2022/10/18 02:17:45;;;;;;;11.98;10.77;;;;;;;7.33;58.86;96353.69;5046278;28;20178;-65
2022/10/18 02:20:12;;;;;;;11.57;10.43;;;;;;;7.15;58.92;96339.16;5042337;28;20277;-65
2022/10/18 02:22:41;;;;;;;13.77;11.50;;;;;;;7.33;58.70;96348.44;5051798;28;20190;-65
2022/10/18 02:25:13;;;;;;;11.60;10.38;;;;;;;7.36;58.79;96358.72;5045057;28;20194;-65
2022/10/18 02:27:39;;;;;;;13.07;9.38;;;;;;;7.22;59.24;96345.69;5044484;28;20201;-65
2022/10/18 02:30:05;;;;;;;11.70;10.10;;;;;;;7.10;59.11;96338.63;5043973;28;20185;-65
2022/10/18 02:32:38;;;;;;;11.73;9.93;;;;;;;6.83;60.71;96345.50;5046066;28;20198;-65
2022/10/18 02:35:06;;;;;;;10.98;9.45;;;;;;;6.96;60.21;96337.72;5045958;28;20190;-64
2022/10/18 02:37:37;;;;;;;12.45;10.52;;;;;;;6.89;60.78;96351.28;5050488;28;20201;-65
2022/10/18 02:40:06;;;;;;;10.68;9.57;;;;;;;6.99;60.42;96342.75;5044335;28;20190;-65
2022/10/18 02:42:53;;;;;;;12.27;10.33;;;;;;;7.02;60.30;96363.47;5044649;28;20250;-65
2022/10/18 02:45:19;;;;;;;10.38;9.20;;;;;;;7.10;59.79;96346.47;5036171;28;20280;-65
2022/10/18 02:47:45;;;;;;;12.75;10.07;;;;;;;6.92;59.67;96351.91;5049127;28;20328;-64
2022/10/18 02:50:10;;;;;;;11.25;9.57;;;;;;;6.97;59.60;96352.47;5045866;28;20200;-64
2022/10/18 02:52:36;;;;;;;11.73;9.33;;;;;;;6.87;60.03;96366.22;5044497;28;20197;-64
2022/10/18 02:55:02;;;;;;;12.37;9.57;;;;;;;6.93;60.20;96369.28;5047290;28;20360;-65
2022/10/18 02:57:28;;;;;;;12.60;9.40;;;;;;;6.69;60.54;96357.75;5042439;28;20249;-65
2022/10/18 02:59:54;;;;;;;11.50;8.63;;;;;;;6.75;60.47;96366.03;5045768;28;20321;-64
2022/10/18 03:02:19;;;;;;;9.93;7.63;;;;;;;6.80;60.81;96358.75;5047830;28;20205;-64
2022/10/18 03:04:45;;;;;;;9.57;7.07;;;;;;;6.85;60.04;96353.25;5040759;28;20235;-65
2022/10/18 03:07:10;;;;;;;7.57;6.80;;;;;;;6.88;59.70;96358.28;5048158;28;20217;-64
2022/10/18 03:09:36;;;;;;;9.17;6.77;;;;;;;6.88;60.40;96350.44;5047376;28;20311;-64
2022/10/18 03:12:01;;;;;;;8.00;6.60;;;;;;;6.82;60.07;96351.66;5074100;28;20324;-64
2022/10/18 03:14:26;;;;;;;9.67;7.43;;;;;;;6.82;59.87;96351.66;5087683;28;20196;-65
2022/10/18 03:16:52;;;;;;;8.63;7.50;;;;;;;6.82;60.16;96351.66;5087178;28;20180;-64
2022/10/18 03:19:17;;;;;;;7.27;6.53;;;;;;;6.96;59.45;96342.13;5080396;28;20203;-64
2022/10/18 03:21:43;;;;;;;6.50;5.60;;;;;;;6.87;60.42;96348.78;5086291;28;20248;-64
2022/10/18 03:24:08;;;;;;;7.00;6.23;;;;;;;6.83;60.34;96347.28;5086349;28;20211;-64
2022/10/18 03:26:33;;;;;;;7.27;6.20;;;;;;;6.93;60.32;96348.38;5086147;28;20196;-64
2022/10/18 03:28:59;;;;;;;8.67;6.63;;;;;;;6.95;60.05;96348.25;5082303;28;20185;-64
2022/10/18 03:31:24;;;;;;;8.60;7.70;;;;;;;6.90;60.44;96352.97;5085029;28;20191;-64
2022/10/18 03:33:50;;;;;;;7.80;6.67;;;;;;;6.98;59.98;96341.09;5082013;28;20189;-64
2022/10/18 03:36:16;;;;;;;7.30;6.57;;;;;;;6.81;60.73;96344.75;5090709;28;20325;-66
2022/10/18 03:38:41;;;;;;;8.13;6.83;;;;;;;6.75;60.79;96354.75;5078296;28;20181;-66
2022/10/18 03:41:07;;;;;;;9.30;6.70;;;;;;;6.71;61.53;96358.47;5089761;28;21176;-65
2022/10/18 03:43:33;;;;;;;9.27;6.03;;;;;;;6.70;61.28;96356.81;5086135;28;20279;-65
2022/10/18 03:45:59;;;;;;;6.47;5.87;;;;;;;6.84;60.99;96362.00;5091197;28;20192;-65
2022/10/18 03:48:24;;;;;;;9.63;5.60;;;;;;;6.93;60.68;96365.84;5084953;28;20188;-65
2022/10/18 03:50:49;;;;;;;8.93;6.13;;;;;;;6.85;60.89;96366.31;5086923;28;20210;-65
2022/10/18 03:53:15;;;;;;;10.17;5.93;;;;;;;6.79;61.32;96356.22;5087606;28;20207;-65
2022/10/18 03:55:40;;;;;;;7.90;5.63;;;;;;;6.76;61.43;96362.50;5083129;28;20191;-65
2022/10/18 03:58:06;;;;;;;6.65;5.97;;;;;;;6.75;61.64;96362.59;5087431;28;20184;-64
2022/10/18 04:00:32;;;;;;;10.37;6.40;;;;;;;6.79;61.44;96372.78;5085666;28;20180;-65
2022/10/18 04:02:58;;;;;;;9.67;6.23;;;;;;;6.71;61.90;96369.81;5082428;28;20190;-64
2022/10/18 04:05:25;;;;;;;8.73;6.17;;;;;;;6.78;61.32;96365.03;5082412;28;20192;-65
2022/10/18 04:07:51;;;;;;;7.77;5.73;;;;;;;6.65;61.83;96369.31;5089107;28;20204;-65
2022/10/18 04:10:17;;;;;;;7.30;5.93;;;;;;;6.80;61.45;96373.63;5086285;28;20179;-64
2022/10/18 04:12:43;;;;;;;7.73;6.60;;;;;;;6.66;61.70;96365.78;5080474;28;20177;-65
2022/10/18 04:15:09;;;;;;;7.67;6.37;;;;;;;6.57;61.46;96365.41;5081267;28;20198;-64
2022/10/18 04:17:34;;;;;;;7.17;6.50;;;;;;;6.58;61.51;96363.66;5081854;28;20168;-64
2022/10/18 04:19:59;;;;;;;7.40;6.17;;;;;;;6.63;61.31;96365.03;5086250;28;20212;-65
2022/10/18 04:22:25;;;;;;;8.07;6.33;;;;;;;6.56;61.10;96358.50;5085448;28;20184;-65
2022/10/18 04:24:52;;;;;;;10.97;6.23;;;;;;;6.63;61.00;96362.44;5085383;28;20181;-65
2022/10/18 04:27:18;;;;;;;7.97;6.43;;;;;;;6.61;60.90;96353.00;5084916;28;20196;-65
2022/10/18 04:29:43;;;;;;;8.27;6.50;;;;;;;6.59;61.32;96360.91;5073287;28;20187;-65
2022/10/18 04:32:09;;;;;;;8.67;6.33;;;;;;;6.46;61.83;96360.00;5084772;28;20192;-63
2022/10/18 04:34:34;;;;;;;7.80;6.93;;;;;;;6.52;61.62;96354.41;5082780;28;20183;-64
2022/10/18 04:37:00;;;;;;;8.83;6.97;;;;;;;6.60;61.68;96354.78;5084992;28;20199;-64
2022/10/18 04:39:25;;;;;;;10.10;6.77;;;;;;;6.67;61.40;96351.78;5084940;28;20195;-64
2022/10/18 04:41:51;;;;;;;9.13;6.80;;;;;;;6.63;61.22;96351.97;5064583;28;20184;-64
2022/10/18 04:44:16;;;;;;;9.63;7.63;;;;;;;6.49;61.78;96351.97;5082940;28;20176;-64
2022/10/18 04:46:41;;;;;;;10.97;6.97;;;;;;;6.57;61.17;96347.09;5081140;28;20265;-64
2022/10/18 04:49:07;;;;;;;10.93;7.50;;;;;;;6.56;61.10;96342.81;5082285;28;20373;-64
2022/10/18 04:51:32;;;;;;;9.10;7.53;;;;;;;6.41;61.90;96351.59;5084414;28;20210;-64
2022/10/18 04:53:58;;;;;;;18.73;7.93;;;;;;;6.47;61.90;96355.59;5076894;28;20260;-63
2022/10/18 04:56:23;;;;;;;15.27;7.93;;;;;;;6.22;62.78;96345.81;5088300;28;20176;-64
2022/10/18 04:58:48;;;;;;;15.33;8.40;;;;;;;6.23;63.06;96348.34;5079162;28;20187;-63
2022/10/18 05:01:14;;;;;;;13.00;8.80;;;;;;;6.26;62.72;96336.88;5089650;28;20188;-66
2022/10/18 05:03:40;;;;;;;17.15;9.73;;;;;;;6.34;62.64;96345.91;5086796;28;20191;-65
2022/10/18 05:06:05;;;;;;;17.57;9.07;;;;;;;6.37;62.32;96339.66;5084935;28;20177;-66
2022/10/18 05:08:32;;;;;;;13.90;7.73;;;;;;;6.37;62.93;96347.50;5084728;28;20223;-65
2022/10/18 05:10:58;;;;;;;9.95;7.70;;;;;;;6.41;62.92;96335.91;5082690;28;20228;-65
2022/10/18 05:13:23;;;;;;;16.03;8.90;;;;;;;6.40;62.27;96335.09;5084126;28;20265;-65
2022/10/18 05:15:49;;;;;;;21.50;9.50;;;;;;;6.37;62.40;96330.06;5083667;28;20207;-65
2022/10/18 05:18:14;;;;;;;16.63;9.40;;;;;;;6.22;63.68;96337.97;5080177;28;20261;-64
2022/10/18 05:20:40;;;;;;;18.67;9.70;;;;;;;6.33;63.29;96349.44;5078553;28;20208;-67
2022/10/18 05:23:09;;;;;;;19.43;10.77;;;;;;;6.37;62.87;96339.66;5081381;28;20259;-65
2022/10/18 05:25:37;;;;;;;19.00;11.87;;;;;;;6.50;62.32;96343.22;5077943;28;20256;-65
2022/10/18 05:28:03;;;;;;;22.23;12.70;;;;;;;6.03;63.32;96343.47;5064540;28;20224;-64
2022/10/18 05:30:28;;;;;;;18.97;12.10;;;;;;;6.03;63.43;96341.69;5079089;28;20216;-65
2022/10/18 05:32:54;;;;;;;23.27;14.57;;;;;;;6.04;63.19;96347.75;5080822;28;20192;-67
2022/10/18 05:35:19;;;;;;;23.63;13.23;;;;;;;6.08;63.53;96347.47;5081549;28;20197;-66
2022/10/18 05:37:44;;;;;;;20.73;13.20;;;;;;;6.36;62.44;96358.88;5084883;28;20190;-66
2022/10/18 05:40:10;;;;;;;26.30;14.23;;;;;;;6.48;61.83;96357.31;5080781;28;20199;-65
2022/10/18 05:42:36;;;;;;;19.10;13.30;;;;;;;6.46;61.94;96344.31;5084311;28;20192;-65
2022/10/18 05:45:01;;;;;;;18.37;13.10;;;;;;;6.76;61.00;96356.41;5077577;28;20246;-65
2022/10/18 05:47:27;;;;;;;18.17;13.50;;;;;;;6.70;60.76;96344.56;5063227;28;20218;-65
2022/10/18 05:49:52;;;;;;;102.23;23.10;;;;;;;6.51;62.10;96354.50;5082534;28;20195;-66
2022/10/18 05:52:18;;;;;;;34.00;18.10;;;;;;;6.60;62.61;96352.16;5081739;28;20196;-65
2022/10/18 05:54:43;;;;;;;24.97;14.73;;;;;;;6.83;61.75;96355.13;5070950;28;20188;-65
2022/10/18 05:57:08;;;;;;;23.20;14.43;;;;;;;6.94;61.32;96347.44;5082379;28;20275;-65
2022/10/18 05:59:34;;;;;;;25.80;15.10;;;;;;;7.01;61.38;96350.50;5084945;28;20274;-65
2022/10/18 06:01:59;;;;;;;19.87;14.87;;;;;;;7.09;61.26;96352.66;5087746;28;20189;-64
2022/10/18 06:04:25;;;;;;;19.87;16.20;;;;;;;7.17;61.05;96350.38;5088404;28;20196;-64
2022/10/18 06:06:50;;;;;;;26.13;15.60;;;;;;;7.15;61.55;96353.06;5085888;28;20208;-65
2022/10/18 06:09:15;;;;;;;24.25;15.90;;;;;;;7.07;63.16;96360.56;5090695;28;20266;-65
2022/10/18 06:11:41;;;;;;;21.88;15.38;;;;;;;7.09;62.53;96350.03;5077294;28;20646;-66
2022/10/18 06:14:08;;;;;;;19.13;13.90;;;;;;;7.39;61.96;96355.06;5087536;28;20191;-64
2022/10/18 06:16:33;;;;;;;17.73;14.77;;;;;;;7.31;60.83;96350.31;5081719;28;20184;-64
2022/10/18 06:18:59;;;;;;;17.23;14.20;;;;;;;7.48;60.72;96352.69;5085851;28;20252;-64
2022/10/18 06:21:25;;;;;;;18.87;12.83;;;;;;;7.64;60.45;96356.91;5087813;28;20192;-64
2022/10/18 06:23:52;;;;;;;19.02;14.10;;;;;;;7.73;60.04;96359.78;5061349;28;20285;-64
2022/10/18 06:26:17;;;;;;;20.95;13.80;;;;;;;7.73;59.47;96353.69;5086932;28;20204;-64
2022/10/18 06:28:43;;;;;;;20.10;13.80;;;;;;;7.76;59.75;96350.88;5082264;28;20270;-64
2022/10/18 06:31:10;;;;;;;18.42;14.20;;;;;;;7.88;59.04;96343.97;5088382;28;20195;-64
2022/10/18 06:33:36;;;;;;;23.35;16.42;;;;;;;7.98;59.14;96352.06;5087294;28;20231;-64
2022/10/18 06:36:09;;;;;;;18.77;14.90;;;;;;;8.08;58.71;96345.25;5088327;28;20254;-64
2022/10/18 06:38:35;;;;;;;18.40;14.68;;;;;;;8.22;57.95;96344.31;5088991;28;20194;-64
2022/10/18 06:41:00;;;;;;;25.48;15.73;;;;;;;8.41;57.91;96343.94;5085972;28;20189;-64
2022/10/18 06:43:26;;;;;;;23.38;15.18;;;;;;;8.49;57.53;96345.06;5086179;28;20206;-64
2022/10/18 06:45:52;;;;;;;19.02;13.27;;;;;;;8.53;57.11;96343.09;5085226;28;20191;-64
2022/10/18 06:48:18;;;;;;;18.70;14.15;;;;;;;8.55;56.40;96346.41;5091929;28;20206;-65
2022/10/18 06:50:58;;;;;;;22.75;15.35;;;;;;;8.63;56.96;96345.88;5078658;28;20215;-65
2022/10/18 06:53:25;;;;;;;21.15;14.25;;;;;;;8.83;55.64;96347.97;5087069;28;20275;-65
2022/10/18 06:55:51;;;;;;;17.95;14.73;;;;;;;8.82;55.62;96341.88;5100567;28;20193;-65
2022/10/18 06:58:17;;;;;;;21.70;15.27;;;;;;;8.88;55.99;96339.78;5085775;28;20190;-65
2022/10/18 07:00:44;;;;;;;22.58;16.45;;;;;;;8.93;56.17;96340.28;5091273;28;20215;-65
2022/10/18 07:03:10;;;;;;;17.60;15.65;;;;;;;9.02;56.02;96337.81;5085349;28;20189;-65
2022/10/18 07:05:36;;;;;;;22.77;15.70;;;;;;;9.10;55.14;96333.81;5089279;28;20219;-65
2022/10/18 07:08:01;;;;;;;21.77;16.08;;;;;;;9.17;54.96;96333.28;5078377;28;20204;-65
2022/10/18 07:10:26;;;;;;;19.17;14.88;;;;;;;9.14;55.53;96344.00;5086963;28;20192;-64
2022/10/18 07:12:52;;;;;;;18.52;14.02;;;;;;;9.03;55.35;96336.91;5089031;28;20235;-64
2022/10/18 07:15:17;;;;;;;20.30;14.60;;;;;;;9.19;54.75;96336.59;5084731;28;20185;-63
2022/10/18 07:17:46;;;;;;;24.67;14.48;;;;;;;9.28;54.42;96341.19;5083533;28;20181;-63
2022/10/18 07:20:12;;;;;;;18.85;14.18;;;;;;;9.10;54.46;96339.91;5087845;28;20246;-64
2022/10/18 07:22:38;;;;;;;25.25;14.00;;;;;;;9.38;54.01;96348.41;5085894;28;20184;-65
2022/10/18 07:25:05;;;;;;;16.45;13.00;;;;;;;9.48;53.81;96341.53;5089462;28;20212;-65
2022/10/18 07:27:30;;;;;;;16.85;12.27;;;;;;;9.37;53.34;96344.94;5081183;28;20222;-65
2022/10/18 07:29:56;;;;;;;15.35;11.30;;;;;;;9.36;52.86;96343.28;5087045;28;20193;-65
2022/10/18 07:32:21;;;;;;;15.70;11.63;;;;;;;9.41;52.59;96337.66;5087800;28;20210;-64
2022/10/18 07:34:46;;;;;;;14.93;11.55;;;;;;;9.56;52.41;96333.91;5082314;28;20204;-64
2022/10/18 07:37:12;;;;;;;16.10;11.23;;;;;;;9.63;53.05;96324.66;5083253;28;20296;-64
2022/10/18 07:39:37;;;;;;;13.00;9.95;;;;;;;9.70;52.16;96335.53;5089463;28;20199;-64
2022/10/18 07:42:03;;;;;;;14.97;10.37;;;;;;;9.67;52.23;96322.63;5080837;28;20188;-64
2022/10/18 07:44:28;;;;;;;14.68;12.07;;;;;;;9.81;52.70;96329.47;5083868;28;20185;-63
2022/10/18 07:46:54;;;;;;;15.85;11.85;;;;;;;9.87;52.82;96319.34;5081234;28;20205;-64
2022/10/18 07:49:19;;;;;;;17.95;11.25;;;;;;;9.99;51.75;96319.38;5084737;28;20181;-66
2022/10/18 07:51:45;;;;;;;14.32;11.80;;;;;;;9.94;51.99;96312.69;5078930;28;20188;-68
2022/10/18 07:54:10;;;;;;;16.15;13.00;;;;;;;10.04;51.66;96311.97;5085934;28;20199;-65
2022/10/18 07:56:36;;;;;;;16.98;13.20;;;;;;;10.10;52.72;96307.13;5078207;28;20181;-76
2022/10/18 07:59:01;;;;;;;17.00;12.98;;;;;;;10.19;52.21;96304.72;5086033;28;20188;-68
2022/10/18 08:01:26;;;;;;;13.82;10.25;;;;;;;10.02;52.51;96304.19;5083038;28;20192;-67
2022/10/18 08:03:52;;;;;;;14.52;10.55;;;;;;;10.18;52.41;96300.41;5067730;28;20637;-67
2022/10/18 08:06:20;;;;;;;11.43;10.25;;;;;;;10.22;52.43;96307.13;5083474;28;20176;-68
2022/10/18 08:08:46;;;;;;;12.88;10.60;;;;;;;10.13;51.70;96301.63;5082624;28;20192;-66
2022/10/18 08:11:18;;;;;;;11.95;10.65;;;;;;;10.31;52.45;96298.53;5081675;28;20267;-66
2022/10/18 08:13:44;;;;;;;13.38;10.70;;;;;;;10.37;52.57;96298.06;5085898;28;20203;-65
2022/10/18 08:16:12;;;;;;;12.23;10.55;;;;;;;10.49;52.56;96297.13;5081186;28;20181;-66
2022/10/18 08:18:38;;;;;;;13.00;10.50;;;;;;;10.56;51.96;96276.44;5083416;28;20279;-65
2022/10/18 08:21:06;;;;;;;9.75;8.30;;;;;;;10.69;52.09;96297.34;5086866;28;20263;-66
2022/10/18 08:23:33;;;;;;;10.25;8.88;;;;;;;10.76;51.82;96288.00;5087608;28;20236;-66
2022/10/18 08:26:15;;;;;;;13.07;9.05;;;;;;;10.72;52.13;96287.44;5084640;28;20209;-66
2022/10/18 08:28:41;;;;;;;10.48;9.23;;;;;;;10.72;51.84;96270.78;5088285;28;20176;-66
2022/10/18 08:31:10;;;;;;;13.90;10.10;;;;;;;10.81;51.54;96275.31;5083396;28;20271;-66
2022/10/18 08:33:35;;;;;;;16.58;12.35;;;;;;;10.97;50.64;96270.50;5083626;28;20271;-66
2022/10/18 08:36:04;;;;;;;14.75;11.85;;;;;;;11.01;50.68;96264.06;5083599;28;20509;-66
2022/10/18 08:38:31;;;;;;;16.40;12.45;;;;;;;11.00;52.25;96256.25;5085467;28;20291;-64
2022/10/18 08:41:34;;;;;;;17.30;12.15;;;;;;;11.19;50.64;96263.50;5085460;28;20210;-66
2022/10/18 08:44:29;;;;;;;15.80;11.13;;;;;;;11.23;51.55;96251.78;5102558;28;20176;-65
2022/10/18 08:46:59;;;;;;;16.02;10.65;;;;;;;11.41;50.75;96242.38;5084940;28;20218;-66
2022/10/18 08:49:30;;;;;;;14.27;11.60;;;;;;;11.65;50.69;96244.75;5077609;28;20213;-66
2022/10/18 08:51:57;;;;;;;15.90;11.38;;;;;;;11.83;49.71;96239.72;5079763;28;20188;-66
2022/10/18 08:54:47;;;;;;;14.82;11.82;;;;;;;12.01;48.75;96241.81;5088906;28;20214;-65
2022/10/18 08:57:16;;;;;;;14.85;11.30;;;;;;;11.98;48.93;96228.91;5095337;28;20212;-63
2022/10/18 08:59:43;;;;;;;12.75;10.35;;;;;;;12.23;49.11;96230.25;5087330;28;20195;-65
2022/10/18 09:02:17;;;;;;;10.45;9.32;;;;;;;12.27;48.84;96231.66;5068040;28;20187;-64
2022/10/18 09:05:04;;;;;;;14.25;9.15;;;;;;;12.18;48.24;96230.66;5087393;28;20184;-65
2022/10/18 09:08:09;;;;;;;14.40;9.35;;;;;;;12.49;48.90;96223.56;5082077;28;20346;-64
2022/10/18 09:10:52;;;;;;;13.18;9.23;;;;;;;12.67;47.94;96221.13;5084296;28;20184;-64
2022/10/18 09:13:52;;;;;;;13.82;9.30;;;;;;;12.81;46.92;96217.25;5050505;28;20197;-65
2022/10/18 09:16:25;;;;;;;12.60;8.88;;;;;;;12.93;47.60;96215.31;5043614;28;20216;-65
2022/10/18 09:19:01;;;;;;;13.02;8.65;;;;;;;13.14;46.66;96213.38;5048593;28;20189;-65
2022/10/18 09:21:47;;;;;;;11.02;8.48;;;;;;;13.34;46.64;96216.06;5042501;28;20223;-65
2022/10/18 09:24:21;;;;;;;17.77;8.07;;;;;;;13.43;46.50;96209.97;4986923;28;20211;-66
2022/10/18 09:26:48;;;;;;;16.63;9.45;;;;;;;13.62;46.41;96202.00;4990970;28;20227;-66
2022/10/18 09:29:29;;;;;;;11.88;7.40;;;;;;;13.76;46.02;96207.81;4990741;28;20199;-66
2022/10/18 09:32:11;;;;;;;10.63;7.88;;;;;;;13.82;45.18;96199.31;4986288;28;20178;-66
2022/10/18 09:34:50;;;;;;;14.43;7.32;;;;;;;14.02;44.55;96193.00;4988592;28;20281;-67
2022/10/18 09:37:19;;;;;;;11.30;6.22;;;;;;;14.17;44.42;96195.19;4983221;28;20179;-66
2022/10/18 09:39:47;;;;;;;11.80;7.05;;;;;;;14.28;44.32;96193.19;4999495;28;20187;-67
2022/10/18 09:42:25;;;;;;;11.05;6.78;;;;;;;14.41;43.95;96176.97;5000428;28;20290;-66
2022/10/18 09:44:57;;;;;;;9.30;6.72;;;;;;;14.62;43.28;96187.34;4991797;28;20187;-67
2022/10/18 09:47:33;;;;;;;8.27;6.13;;;;;;;14.82;43.15;96190.72;4988253;28;20202;-67
2022/10/18 09:50:13;;;;;;;10.23;6.00;;;;;;;14.93;42.54;96174.59;5003209;28;20199;-66
2022/10/18 09:52:49;;;;;;;12.45;5.80;;;;;;;14.95;43.71;96174.47;4985697;28;20225;-66
2022/10/18 09:55:21;;;;;;;10.93;6.00;;;;;;;15.15;43.20;96172.47;4985124;28;20271;-66
2022/10/18 09:57:55;;;;;;;10.02;5.45;;;;;;;15.40;41.92;96174.38;4988601;28;20294;-67
2022/10/18 10:00:30;;;;;;;8.02;4.93;;;;;;;15.51;41.03;96168.00;4992474;28;20257;-67
2022/10/18 10:02:56;;;;;;;9.35;4.80;;;;;;;15.67;41.24;96161.97;5048610;28;20235;-66
2022/10/18 10:05:21;;;;;;;8.00;5.35;;;;;;;15.79;40.60;96160.75;5040881;28;20188;-67
2022/10/18 10:07:48;;;;;;;8.20;4.85;;;;;;;15.96;40.44;96153.75;5041467;28;20296;-67
2022/10/18 10:10:24;;;;;;;9.07;4.30;;;;;;;16.13;40.03;96140.56;5048478;28;20540;-67
2022/10/18 10:13:13;;;;;;;9.27;4.80;;;;;;;16.22;38.49;96135.13;5067192;28;20327;-67
2022/10/18 10:15:40;;;;;;;9.68;4.97;;;;;;;16.38;37.96;96131.69;5077458;28;20177;-67
2022/10/18 10:18:20;;;;;;;5.50;3.78;;;;;;;16.56;36.53;96123.63;5087574;28;20237;-67
2022/10/18 10:20:50;;;;;;;10.43;4.28;;;;;;;16.76;36.92;96114.41;5079932;28;20203;-68
2022/10/18 10:23:24;;;;;;;4.95;3.60;;;;;;;16.92;36.25;96115.44;5077848;28;20176;-65
2022/10/18 10:25:57;;;;;;;7.40;3.50;;;;;;;16.94;35.62;96113.44;5078796;28;20207;-67
2022/10/18 10:28:27;;;;;;;13.32;8.25;;;;;;;17.03;36.58;96112.47;5083789;28;20208;-65
2022/10/18 10:30:53;;;;;;;8.85;7.15;;;;;;;17.00;37.21;96104.84;5079816;28;20262;-66
2022/10/18 10:33:34;;;;;;;14.02;8.68;;;;;;;17.05;36.42;96094.50;5085449;28;20516;-65
2022/10/18 10:36:01;;;;;;;9.65;7.75;;;;;;;17.01;36.05;96087.06;5082697;28;20181;-65
2022/10/18 10:38:28;;;;;;;12.30;8.32;;;;;;;17.17;37.21;96084.41;5084390;28;20278;-65
2022/10/18 10:40:55;;;;;;;12.90;8.00;;;;;;;17.16;36.86;96088.91;5084758;28;20204;-67
2022/10/18 10:43:33;;;;;;;13.15;7.35;;;;;;;17.05;35.95;96078.56;5083635;28;20183;-68
2022/10/18 10:46:10;;;;;;;9.77;5.28;;;;;;;17.26;34.52;96067.44;5087035;28;20180;-65
2022/10/18 10:48:56;;;;;;;10.88;5.65;;;;;;;17.41;34.88;96059.63;5087116;28;20203;-66
2022/10/18 10:51:32;;;;;;;10.32;5.63;;;;;;;17.58;35.79;96055.94;5087583;28;20176;-67
2022/10/18 10:54:02;;;;;;;8.63;5.95;;;;;;;17.86;35.04;96058.22;5083653;28;20620;-66
2022/10/18 10:56:36;;;;;;;4.28;3.22;;;;;;;18.02;30.01;96047.53;5080248;28;20263;-65
2022/10/18 10:59:14;;;;;;;5.68;2.65;;;;;;;17.93;28.87;96042.38;5089346;28;20180;-66
2022/10/18 11:01:40;;;;;;;2.92;2.22;;;;;;;18.04;29.62;96042.00;5089197;28;20203;-67
2022/10/18 11:04:25;;;;;;;4.13;2.90;;;;;;;18.37;30.37;96036.53;5083347;28;20185;-67
2022/10/18 11:07:15;;;;;;;4.05;2.70;;;;;;;18.61;28.40;96038.22;5085992;28;20257;-67
2022/10/18 11:09:49;;;;;;;5.30;2.05;;;;;;;18.67;27.88;96029.53;5085417;28;20234;-66
2022/10/18 11:12:47;;;;;;;4.20;2.42;;;;;;;18.83;27.21;96029.44;5086291;28;20244;-66
2022/10/18 11:15:29;;;;;;;4.28;2.25;;;;;;;19.01;28.34;96022.97;5008792;28;20318;-65
2022/10/18 11:18:36;;;;;;;5.03;3.22;;;;;;;19.10;26.70;96013.88;5007913;28;20191;-66
2022/10/18 11:21:07;;;;;;;2.90;2.40;;;;;;;19.33;25.39;96020.00;5021520;28;20193;-65
2022/10/18 11:23:38;;;;;;;5.57;2.33;;;;;;;19.48;25.20;96003.19;5013336;28;20272;-65
2022/10/18 11:26:10;;;;;;;5.65;2.55;;;;;;;19.66;24.98;95998.34;5013357;28;20216;-64
2022/10/18 11:28:35;;;;;;;3.60;2.50;;;;;;;19.64;25.06;95997.66;5010272;28;20214;-65
2022/10/18 11:31:11;;;;;;;3.72;2.13;;;;;;;19.65;24.36;95985.19;5010539;28;20202;-65
2022/10/18 11:33:58;;;;;;;4.15;2.15;;;;;;;20.02;24.58;95981.56;5025004;28;20186;-66
2022/10/18 11:36:36;;;;;;;3.75;2.17;;;;;;;20.55;23.56;95982.19;5022946;28;20206;-66
2022/10/18 11:39:13;;;;;;;4.07;2.47;;;;;;;21.20;22.80;95972.28;5027356;28;20186;-65
2022/10/18 11:42:00;;;;;;;4.57;2.25;;;;;;;21.40;22.61;95967.06;5022867;28;20178;-66